Home > Products > Valid Products > TAF

000
FTUS43 KDLH 262000 AAB
TAFHYR
TAF AMD
KHYR 262030Z 2621/2718 18007KT 3/4SM -SN BR BKN007 OVC015
      TEMPO 2621/2622 3SM -SN BR SCT007 OVC015
     FM262200 25005KT 4SM -SN BR OVC007
     FM270000 32003KT P6SM SCT007 OVC015=



000
FTUS43 KDLH 261900 AAB
TAFDLH
TAF AMD
KDLH 261903Z 2619/2718 28005KT 4SM -SN BR SCT006 OVC012
      TEMPO 2619/2621 1 1/2SM -SN BR OVC006
     FM262100 30006KT 6SM -SN BR OVC015
     FM262300 33008KT P6SM OVC015
     FM271500 VRB03KT P6SM SCT015=



000
FTUS43 KDLH 261800 AAA
TAFINL
TAF AMD
KINL 261804Z 2618/2718 33012G20KT P6SM SCT007 OVC010
     FM262000 34008KT P6SM OVC010
     FM271500 VRB03KT P6SM SCT015=



000
FTUS43 KDLH 261800 AAA
TAFHYR
TAF AMD
KHYR 261802Z 2618/2718 18007KT 1 1/2SM -SN BR SCT007 OVC012
      TEMPO 2618/2620 4SM -SN BR OVC007
     FM262000 25005KT 4SM -SN BR OVC007
     FM270000 32003KT P6SM SCT007 OVC015=



000
FTUS43 KDLH 261800 AAA
TAFDLH
TAF AMD
KDLH 261801Z 2618/2718 23005KT 4SM -SN BR SCT007 OVC012
     FM262000 27006KT 6SM -SN BR OVC015
     FM262200 33008KT P6SM OVC015
     FM271500 VRB03KT P6SM SCT015=



000
FTUS43 KDLH 261700
TAFINL
TAF
KINL 261721Z 2618/2718 31009KT P6SM -SN OVC006
     FM262000 34008KT P6SM OVC010
     FM271500 VRB03KT P6SM SCT015=



000
FTUS43 KDLH 261700
TAFBRD
TAF
KBRD 261721Z 2618/2718 31011KT P6SM BKN025 OVC035
     FM262000 33013G20KT P6SM BKN025 OVC035
     FM270200 34008KT P6SM OVC025
     FM271500 VRB03KT P6SM SCT025=



000
FTUS43 KDLH 261700
TAFDLH
TAF
KDLH 261721Z 2618/2718 23006KT 1 1/2SM -SN BR OVC006
     FM262000 27006KT 4SM -SN BR OVC010
     FM262200 33008KT P6SM OVC015
     FM271500 VRB03KT P6SM SCT015=



000
FTUS43 KDLH 261700
TAFHYR
TAF
KHYR 261721Z 2618/2718 18007KT 3/4SM -SN BR SCT007 OVC025
      TEMPO 2618/2620 2SM -SN BR OVC007
     FM262000 25005KT 4SM -SN BR OVC007
     FM270000 32003KT P6SM SCT007 OVC015=



000
FTUS43 KDLH 261600 AAB
TAFDLH
TAF AMD
KDLH 261618Z 2616/2712 21006KT 2SM -SN BR OVC007
      TEMPO 2616/2618 4SM -FZDZSN BR OVC015
     FM261800 25006KT 4SM -SN BR OVC007
     FM262100 33008KT 6SM -SN OVC015=



000
FTUS43 KDLH 261600 AAD
TAFHYR
TAF AMD
KHYR 261616Z 2616/2712 18007KT 3/4SM -SN BR OVC007
      TEMPO 2616/2618 1 1/2SM -SN BR OVC015
     FM261800 20005KT 4SM -SN BR OVC007
     FM262200 26005KT 6SM -SN BR OVC015
     FM270200 34005KT P6SM OVC015=



000
FTUS43 KDLH 261600 AAC
TAFHYR
TAF AMD
KHYR 261604Z 2616/2712 17006KT 3/4SM -SN BR OVC007
      TEMPO 2616/2618 1 1/2SM -SN BR OVC007
     FM261800 20005KT 4SM -SN BR OVC007
     FM262200 26005KT 6SM -SN BR OVC015
     FM270200 34005KT P6SM OVC015=



000
FTUS43 KDLH 261600 AAB
TAFBRD
TAF AMD
KBRD 261600Z 2616/2712 28010KT P6SM OVC060
     FM261800 31010KT P6SM OVC025=



000
FTUS43 KDLH 261500 AAA
TAFINL
TAF AMD
KINL 261517Z 2615/2712 VRB03KT 6SM -SN BR OVC007
      TEMPO 2615/2617 4SM -FZDZSN BR OVC015
     FM261700 30007KT 6SM -SN BR SCT007 OVC015
     FM262000 34007KT P6SM OVC015=



000
FTUS43 KDLH 261500 AAA
TAFDLH
TAF AMD
KDLH 261501Z 2615/2712 21009KT 1 1/2SM -FZDZSN BR OVC004
      TEMPO 2615/2617 3SM -FZDZSN BR OVC007
     FM261700 25008KT 3SM -SN BR OVC007
      TEMPO 2617/2618 4SM -FZDZSN BR
     FM262100 33008KT 6SM -SN OVC015=



000
FTUS43 KDLH 261300 AAA
TAFBRD
TAF AMD
KBRD 261331Z 2614/2712 21006KT P6SM -SN OVC015
     FM261800 30008KT P6SM OVC019
     FM270200 33006KT P6SM OVC018=



000
FTUS43 KDLH 261300 AAB
TAFHYR
TAF AMD
KHYR 261322Z 2613/2712 17007KT 1SM -SN OVC015
      TEMPO 2613/2616 3SM -FZDZSN SCT016 OVC035
     FM261600 20005KT 4SM -SN BR OVC010
     FM262200 23004KT 6SM BR OVC015
     FM270200 33003KT P6SM OVC015=



000
FTUS43 KDLH 261300 AAA
TAFDLH
TAF AMD
KDLH 261302Z 2613/2712 16010KT 3SM -FZDZSN OVC025
      TEMPO 2613/2615 1SM -FZDZSN OVC006
     FM261500 22007KT P6SM VCSH OVC015
      TEMPO 2615/2618 4SM -FZDZSN
     FM261800 28008KT P6SM OVC015
     FM262200 32008KT P6SM OVC015
     FM270000 35006KT P6SM OVC030=



000
FTUS43 KDLH 261200 AAA
TAFHYR
TAF AMD
KHYR 261240Z 2613/2712 18007KT 3SM -SN OVC025
      TEMPO 2613/2615 1SM -FZDZSN OVC016
     FM261600 20005KT 4SM -SN BR OVC010
     FM262200 23004KT 6SM BR OVC015
     FM270200 33003KT P6SM OVC015=



000
FTUS43 KDLH 261100
TAFHYR
TAF
KHYR 261134Z 2612/2712 18007KT 3SM -SN OVC016
      TEMPO 2612/2615 3/4SM -SN OVC008
     FM261600 20005KT 4SM -SN BR OVC010
     FM262200 23004KT 6SM BR OVC015
     FM270200 33003KT P6SM OVC015=



000
FTUS43 KDLH 261100
TAFBRD
TAF
KBRD 261134Z 2612/2712 17007KT P6SM OVC007
     FM261400 26006KT P6SM -SN OVC015
     FM261800 30008KT P6SM OVC019
     FM270200 33006KT P6SM OVC018=



000
FTUS43 KDLH 261100
TAFDLH
TAF
KDLH 261134Z 2612/2712 16010KT 3SM -FZDZSN OVC025
      TEMPO 2612/2613 1/2SM SN OVC015
     FM261400 22007KT P6SM VCSH OVC015
      TEMPO 2614/2618 4SM -FZDZSN
     FM261800 28008KT P6SM OVC015
     FM262200 32008KT P6SM OVC015
     FM270000 35006KT P6SM OVC030=



000
FTUS43 KDLH 261100
TAFINL
TAF
KINL 261134Z 2612/2712 17008KT 3SM -SN OVC015
      TEMPO 2612/2615 2SM -SN OVC020
     FM261500 25006KT 5SM -FZDZSN BR OVC008
     FM261900 30008KT P6SM OVC015
     FM270300 34004KT P6SM OVC015=



000
FTUS43 KDLH 260900 AAA
TAFINL
TAF AMD
KINL 260917Z 2609/2706 18007KT P6SM VCSH OVC016
      TEMPO 2609/2612 3SM -SN VV005
     FM261200 18006KT P6SM VCSH OVC009
      TEMPO 2612/2615 2SM -SN OVC020
     FM261500 25006KT 5SM -FZDZSN BR OVC008
     FM261900 30008KT P6SM OVC015=



000
FTUS43 KDLH 260500
TAFBRD
TAF
KBRD 260539Z 2606/2706 19008G15KT P6SM -SN BKN017 OVC050
      TEMPO 2606/2608 3SM -SN BR OVC010
     FM260800 19008G16KT 6SM -SN BR OVC015
      TEMPO 2608/2611 2SM -SN
     FM261400 26006KT P6SM -SN OVC015
     FM261800 30008KT P6SM OVC019
     FM270200 33006KT P6SM OVC018=



000
FTUS43 KDLH 260500
TAFDLH
TAF
KDLH 260539Z 2606/2706 18008KT P6SM FEW018 OVC045
     FM260900 19008G15KT 3SM -SN BR BKN015 OVC035
     FM261000 19010G16KT 1 1/2SM -SN BR OVC009
      TEMPO 2610/2613 1/2SM SN VV005
     FM261500 22007KT 4SM -SN BR OVC009
     FM261900 28008KT P6SM VCSH OVC008
     FM270200 32008KT P6SM BKN015 OVC050=



000
FTUS43 KDLH 260500
TAFHYR
TAF
KHYR 260539Z 2606/2706 17004KT P6SM BKN060
      TEMPO 2610/2611 3SM -SN BKN020 OVC045
     FM261100 18005KT 1 1/2SM -SN OVC015
      TEMPO 2612/2615 3/4SM -SN OVC008
     FM261600 20005KT 4SM -SN BR OVC010
     FM262200 23004KT 6SM BR OVC015
     FM270200 33003KT P6SM OVC015=



000
FTUS43 KDLH 260500
TAFINL
TAF
KINL 260539Z 2606/2706 18007G14KT 5SM -SN BKN020 OVC045
     FM260700 19008G15KT 1SM -SN OVC015
      TEMPO 2607/2610 3/4SM -SN VV005
     FM261100 18006KT 2SM -SN BR OVC009
     FM261500 25006KT 5SM -FZDZSN BR OVC008
     FM261900 30008KT P6SM OVC015=



000
FTUS43 KDLH 260400 AAA
TAFINL
TAF AMD
KINL 260433Z 2605/2624 19008KT P6SM SCT020 OVC050
      TEMPO 2605/2606 3SM -SN BKN020 OVC050
     FM260600 17005KT 3SM -SN OVC015
     FM260700 16006KT 1SM -SN OVC009
      TEMPO 2607/2610 1/2SM SN VV005
     FM261100 18006KT 4SM -SN OVC009
     FM261500 25006KT P6SM -SN OVC008
     FM261900 30008KT P6SM OVC015=



000
FTUS43 KDLH 260400 AAB
TAFBRD
TAF AMD
KBRD 260401Z 2604/2624 18007KT P6SM SCT019 OVC130
      TEMPO 2604/2606 BKN019
     FM260600 19008KT 6SM -SN OVC014
     FM260800 19008KT 3SM -SN OVC010
      TEMPO 2608/2611 1SM -SN VV006
     FM261400 26007KT 6SM -SN OVC015
     FM262000 30008KT P6SM OVC019=



000
FTUS43 KDLH 260200 AAA
TAFBRD
TAF AMD
KBRD 260237Z 2603/2624 18006KT P6SM SCT025 BKN120
     FM260400 18005KT P6SM BKN019
     FM260600 19008KT 6SM -SN OVC014
     FM260800 19008KT 3SM -SN OVC010
      TEMPO 2608/2611 1SM -SN VV006
     FM261400 26007KT 6SM -SN OVC015
     FM262000 30008KT P6SM OVC019=



000
FTUS43 KDLH 260200 AAA
TAFDLH
TAF AMD
KDLH 260234Z 2603/2624 13004KT P6SM SCT013 BKN060
     FM260700 19006KT P6SM BKN019 BKN050
     FM260800 20008KT 5SM -SN BR BKN015 OVC035
     FM261000 19010KT 1 1/2SM -SN BR OVC008
      TEMPO 2610/2613 1/2SM SN VV005
     FM261500 22009KT 5SM -SN OVC009
     FM261900 27008KT P6SM OVC008=



000
FTUS43 KDLH 252300
TAFDLH
TAF
KDLH 252336Z 2600/2624 12007KT P6SM BKN013
     FM260200 16005KT P6SM SCT013
     FM260600 19006KT P6SM BKN015 BKN050
     FM260800 20008KT 5SM -SN BR BKN015 OVC035
     FM261000 19010KT 1 1/2SM -SN BR OVC008
      TEMPO 2610/2613 1/2SM SN VV005
     FM261500 22009KT 5SM -SN OVC009
     FM261900 27008KT P6SM OVC008=



000
FTUS43 KDLH 252300
TAFINL
TAF
KINL 252336Z 2600/2624 17004KT P6SM SCT020 OVC060
     FM260400 17006KT P6SM -SN BKN015 OVC050
     FM260500 17005KT 3SM -SN OVC015
     FM260700 16006KT 1SM -SN OVC009
      TEMPO 2607/2610 1/2SM SN VV005
     FM261100 18006KT 4SM -SN OVC009
     FM261500 25006KT P6SM -SN OVC008
     FM261900 30008KT P6SM OVC015=



000
FTUS43 KDLH 252300
TAFBRD
TAF
KBRD 252336Z 2600/2624 15003KT P6SM SCT025 BKN060
     FM260300 18005KT P6SM BKN015
     FM260600 19008KT 6SM -SN OVC012
     FM260800 19008KT 2SM -SN OVC010
      TEMPO 2608/2611 1SM -SN VV006
     FM261400 26007KT 6SM -SN OVC015
     FM262000 30008KT P6SM OVC019=



000
FTUS43 KDLH 252300
TAFHYR
TAF
KHYR 252336Z 2600/2624 14003KT P6SM SCT050
     FM260200 16003KT P6SM BKN050
      TEMPO 2605/2607 BKN022 OVC050
     FM260700 17004KT 6SM -SN OVC020
     FM261000 18004KT 3SM -SN OVC015
     FM261200 18006KT 1SM -SN BR OVC010
     FM261600 18005KT 6SM -SN OVC015=



000
FTUS43 KDLH 252100 AAA
TAFHYR
TAF AMD
KHYR 252107Z 2521/2618 06006KT P6SM SCT020 OVC100
     FM260000 18006KT P6SM BKN050
     FM260700 20007KT 3SM -SN OVC020
     FM261200 22010KT 2SM -SN BR OVC015=



000
FTUS43 KDLH 252100 AAA
TAFDLH
TAF AMD
KDLH 252107Z 2521/2618 08012KT P6SM VCSH OVC012
      TEMPO 2521/2524 5SM -SN OVC025
     FM260000 12005KT P6SM BKN025
     FM260500 20006KT P6SM BKN015 BKN050
     FM260800 20008KT 3SM -SN BR BKN008 OVC035
     FM261200 18012KT P6SM VCSH OVC035=



000
FTUS43 KDLH 252100 AAA
TAFINL
TAF AMD
KINL 252106Z 2521/2618 20008KT P6SM OVC017
      TEMPO 2521/2524 SCT015 OVC040
     FM260000 20004KT P6SM SCT025 BKN040
     FM260300 21007KT P6SM BKN025 OVC040
     FM260500 21009KT 3SM -SN BKN015 BKN035
     FM261000 22009KT 3SM -SN OVC012
     FM261400 27010KT P6SM VCSH OVC015=



000
FTUS43 KDLH 251900 AAA
TAFBRD
TAF AMD
KBRD 251959Z 2520/2618 05007KT P6SM SCT020
      TEMPO 2520/2524 BKN020
     FM260000 17003KT P6SM SCT025 OVC250
     FM260300 19008KT P6SM BKN015
     FM260700 20014KT P6SM VCSH OVC012
     FM261400 24012KT P6SM OVC020=



000
FTUS43 KDLH 251700
TAFINL
TAF
KINL 251736Z 2518/2618 10006KT P6SM OVC014
      TEMPO 2518/2521 SCT015 OVC040
     FM252100 17004KT P6SM SCT025 BKN040
     FM260300 19007KT P6SM BKN025 OVC040
     FM260500 18009KT 3SM -SN BKN015 BKN035
     FM261000 22009KT 3SM -SN OVC012
     FM261400 27010KT P6SM VCSH OVC015=



000
FTUS43 KDLH 251700
TAFHYR
TAF
KHYR 251736Z 2518/2618 06007KT P6SM SCT020 OVC100
      TEMPO 2518/2522 BKN020 OVC100
     FM260000 18006KT P6SM BKN050
     FM260700 20007KT 3SM -SN OVC020
     FM261200 22010KT 2SM -SN BR OVC015=



000
FTUS43 KDLH 251700
TAFBRD
TAF
KBRD 251736Z 2518/2618 05007KT P6SM OVC020
      TEMPO 2518/2522 SCT020
     FM252200 17003KT P6SM SCT025 OVC250
     FM260300 19008KT P6SM BKN015
     FM260700 20014KT P6SM VCSH OVC012
     FM261400 24012KT P6SM OVC020=



000
FTUS43 KDLH 251700
TAFDLH
TAF
KDLH 251736Z 2518/2618 08012KT 4SM -SN OVC015
      TEMPO 2518/2522 6SM -SN OVC025
     FM252200 12005KT P6SM BKN035
     FM260500 20006KT P6SM BKN015 BKN050
     FM260800 20008KT 3SM -SN BR BKN008 OVC035
     FM261200 18012KT P6SM VCSH OVC035=



000
FTUS43 KDLH 251600 AAA
TAFBRD
TAF AMD
KBRD 251627Z 2516/2612 05007KT P6SM SCT020
      TEMPO 2516/2520 BKN020
     FM252100 17003KT P6SM SCT025 OVC250
     FM260300 19008KT 6SM -SN BKN015
     FM260700 20010G20KT 5SM -SN OVC008=



000
FTUS43 KDLH 251100 RRA
TAFDLH
TAF
KDLH 251141Z 2512/2612 04009KT P6SM -SN OVC013
     FM251800 08006KT P6SM OVC015
     FM252200 12005KT P6SM SCT025 SCT150
     FM260500 20006KT P6SM BKN015 BKN050
     FM260800 20008KT 3SM -SN BR BKN008 OVC035=



000
FTUS43 KDLH 251100 RRA
TAFBRD
TAF
KBRD 251141Z 2512/2612 07007KT P6SM OVC025
      TEMPO 2512/2516 BKN015
     FM252100 17003KT P6SM SCT025 OVC250
     FM260300 19008KT 6SM -SN BKN015
     FM260700 20010G20KT 5SM -SN OVC008=



000
FTUS43 KDLH 251100 RRA
TAFHYR
TAF
KHYR 251141Z 2512/2612 06007KT P6SM OVC020
     FM252000 08005KT P6SM SCT025 BKN080
     FM252300 20004KT P6SM BKN080
     FM260800 18007KT P6SM BKN025 OVC080
     FM261000 17007KT 5SM -SN BR OVC015=



000
FTUS43 KDLH 251100 RRA
TAFINL
TAF
KINL 251141Z 2512/2612 08008KT P6SM SCT015 BKN100
      TEMPO 2512/2515 BKN015 OVC100
     FM252000 17004KT P6SM SCT025 BKN070
     FM260300 19007KT P6SM BKN025 OVC040
     FM260500 18009KT 3SM -SN BKN015 BKN035
     FM261000 22009KT 3SM -SN OVC009=



000
FTUS43 KDLH 250700 AAA
TAFHYR
TAF AMD
KHYR 250722Z 2507/2606 04010KT P6SM BKN017 BKN250
     FM251600 05008KT P6SM BKN020 BKN100
     FM260020 18004KT P6SM BKN020 BKN060=



000
FTUS43 KDLH 250500
TAFINL
TAF
KINL 250521Z 2506/2606 05009KT P6SM OVC120
     FM251800 17004KT P6SM SCT020 SCT070
     FM260000 19007G17KT P6SM SCT020
     FM260400 19008G17KT 5SM -SN BKN020 BKN050=



000
FTUS43 KDLH 250500
TAFDLH
TAF
KDLH 250521Z 2506/2606 08015G25KT 6SM -SN BKN014 OVC020
     FM251800 08008KT P6SM OVC020
     FM260000 13005KT P6SM SKC
     FM260400 18007KT P6SM BKN020=



000
FTUS43 KDLH 250500
TAFBRD
TAF
KBRD 250521Z 2506/2606 06009G16KT P6SM BKN014 OVC023
     FM251200 06008G13KT P6SM SCT021 BKN160
     FM252200 18003KT P6SM SCT025 OVC250
     FM260400 19009G19KT 5SM -SN BKN018=



000
FTUS43 KDLH 250500
TAFHYR
TAF
KHYR 250521Z 2506/2606 04012KT P6SM OVC012
     FM250700 03008KT P6SM SCT009 BKN250
     FM251600 05008KT P6SM BKN020 BKN100
     FM260020 18004KT P6SM BKN020 BKN060=



000
FTUS43 KDLH 250500 AAC
TAFBRD
TAF AMD
KBRD 250506Z 2505/2524 07011KT P6SM OVC014
     FM251200 03005KT P6SM SCT021 BKN250
     FM252100 18003KT P6SM OVC250=



000
FTUS43 KDLH 250500 AAD
TAFDLH
TAF AMD
KDLH 250505Z 2505/2524 08015KT P6SM -SN BKN014 OVC020
     FM250800 06010KT P6SM OVC023
     FM251800 09007KT P6SM SKC=



000
FTUS43 KDLH 250300 AAC
TAFDLH
TAF AMD
KDLH 250324Z 2503/2524 08018G25KT P6SM OVC011
     FM250800 06010KT P6SM OVC023
     FM251800 09007KT P6SM SKC=



000
FTUS43 KDLH 250300 AAB
TAFDLH
TAF AMD
KDLH 250305Z 2503/2524 09016G25KT P6SM OVC009
     FM250800 06010KT P6SM SCT015
     FM251800 09007KT P6SM SKC=



000
FTUS43 KDLH 250200 AAB
TAFBRD
TAF AMD
KBRD 250258Z 2503/2524 05008KT P6SM OVC022
      TEMPO 2503/2504 OVC035
     FM251200 03005KT P6SM SCT021 BKN250
     FM252100 18003KT P6SM OVC250=



000
FTUS43 KDLH 250200 AAA
TAFDLH
TAF AMD
KDLH 250201Z 2502/2524 08019G23KT P6SM VCSH OVC009
     FM250300 07011G17KT P6SM -SN BKN015
     FM250800 06010KT P6SM SCT015
     FM251800 09007KT P6SM SKC=



000
FTUS43 KDLH 250200 AAA
TAFDLH
TAF AMD
KDLH 250201Z 2502/2524 08019G23KT P6SM VCSH OVC009
     FM250300 07011G17KT P6SM -SN BKN015
     FM250800 06010KT P6SM SCT015
     FM251800 09007KT P6SM SKC=



000
FTUS43 KDLH 250200 AAB
TAFHYR
TAF AMD
KHYR 250200Z 2502/2524 04014KT P6SM OVC016
     FM250700 03008KT P6SM SCT009 BKN250=



000
FTUS43 KDLH 250200 AAB
TAFHYR
TAF AMD
KHYR 250200Z 2502/2524 04014KT P6SM OVC016
     FM250700 03008KT P6SM SCT009 BKN250=



000
FTUS43 KDLH 250100 AAA
TAFBRD
TAF AMD
KBRD 250104Z 2501/2524 05006KT P6SM OVC035
     FM250200 06007KT P6SM OVC021
     FM251200 03005KT P6SM SCT021 BKN250
     FM252100 18003KT P6SM OVC250=



000
FTUS43 KDLH 250000 AAA
TAFHYR
TAF AMD
KHYR 250015Z 2500/2524 03011KT P6SM BKN010 OVC035
     FM250200 29004KT P6SM VCSH OVC009
     FM250700 03008KT P6SM SCT009 BKN250=



000
FTUS43 KDLH 242300
TAFINL
TAF
KINL 242337Z 2500/2524 05009KT P6SM SCT250
     FM251800 18005KT P6SM SCT070 BKN140=



000
FTUS43 KDLH 242300
TAFBRD
TAF
KBRD 242337Z 2500/2524 05004KT P6SM OVC028
     FM250400 06007KT P6SM OVC021
     FM251200 03005KT P6SM SCT021 BKN250
     FM252100 18003KT P6SM OVC250=



000
FTUS43 KDLH 242300
TAFDLH
TAF
KDLH 242337Z 2500/2524 07017G22KT P6SM VCSH SCT007 OVC010
      TEMPO 2500/2502 -SN OVC006
     FM250300 07011G17KT P6SM -SN BKN015
     FM250800 06010KT P6SM SCT015
     FM251800 09007KT P6SM SKC=



000
FTUS43 KDLH 242300
TAFHYR
TAF
KHYR 242337Z 2500/2524 03010KT P6SM SCT012 BKN035
     FM250200 29004KT P6SM VCSH OVC009
     FM250700 03008KT P6SM SCT009 BKN250=



000
FTUS43 KDLH 242200 AAB
TAFDLH
TAF AMD
KDLH 242247Z 2423/2518 08013G18KT P6SM VCSH BKN004 BKN016
     FM250200 07012G18KT 5SM -SN BR BKN015
     FM250900 08014G20KT P6SM VCSH OVC015
     FM251400 09014KT P6SM OVC030=



000
FTUS43 KDLH 242200 AAB
TAFINL
TAF AMD
KINL 242207Z 2422/2518 04009KT P6SM SKC
     FM250000 07008KT P6SM VCSH OVC020
      TEMPO 2502/2506 4SM -SN OVC010
     FM251200 09010KT P6SM OVC020=



000
FTUS43 KDLH 242100 AAA
TAFHYR
TAF AMD
KHYR 242158Z 2422/2518 36005KT P6SM BKN022 OVC030
      TEMPO 2422/2502 SCT022 OVC030
     FM250200 29004KT P6SM VCSH OVC012
     FM250700 06008KT P6SM -SN OVC015
     FM251200 04010KT P6SM OVC030=



000
FTUS43 KDLH 242100 AAA
TAFDLH
TAF AMD
KDLH 242157Z 2422/2518 35007KT P6SM BKN017 OVC035
      TEMPO 2422/2502 OVC035
     FM250200 07012G18KT 5SM -SN BR BKN015
     FM250900 08014G20KT P6SM VCSH OVC015
     FM251400 09014KT P6SM OVC030=



000
FTUS43 KDLH 242100 AAB
TAFBRD
TAF AMD
KBRD 242155Z 2422/2518 24003KT P6SM SCT015 OVC100
      TEMPO 2422/2424 6SM BR BKN015 OVC050
     FM250000 27004KT P6SM OVC015
      TEMPO 2500/2504 4SM -SN OVC012
     FM250400 02008KT 3SM -SN BR OVC012
     FM251200 03005KT P6SM SCT012 BKN035=



000
FTUS43 KDLH 242100 AAA
TAFINL
TAF AMD
KINL 242108Z 2421/2518 03010KT P6SM SCT015
      TEMPO 2421/2424 BKN015
     FM250000 07008KT P6SM VCSH OVC020
      TEMPO 2502/2506 4SM -SN OVC010
     FM251200 09010KT P6SM OVC020=



000
FTUS43 KDLH 241900 AAA
TAFBRD
TAF AMD
KBRD 241931Z 2420/2518 24003KT 4SM BR SCT009 OVC100
      TEMPO 2420/2422 6SM BR BKN015 OVC050
     FM242200 27004KT 6SM BR OVC015
      TEMPO 2422/2424 4SM -SN OVC004
     FM250100 02008KT 3SM -SN BR OVC012
     FM251200 03005KT P6SM SCT012 BKN035=



000
FTUS43 KDLH 241700
TAFHYR
TAF
KHYR 241737Z 2418/2518 27004KT P6SM BKN011 OVC030
      TEMPO 2418/2421 SCT011 OVC030
     FM250000 29004KT 3SM -SN OVC012
     FM250700 06008KT P6SM -SN OVC015
     FM251200 04010KT P6SM OVC030=



000
FTUS43 KDLH 241700
TAFDLH
TAF
KDLH 241737Z 2418/2518 32007KT P6SM VCSH BKN011 OVC060
      TEMPO 2418/2419 OVC025
     FM241900 30005KT P6SM BKN015
      TEMPO 2419/2423 5SM -SN OVC025
     FM250100 07012G18KT 4SM -SN BR BKN010
     FM250900 08014G20KT P6SM VCSH OVC015
     FM251400 09014KT P6SM OVC030=



000
FTUS43 KDLH 241700
TAFBRD
TAF
KBRD 241737Z 2418/2518 24003KT 4SM BR BKN005
      TEMPO 2418/2420 6SM BR SCT005 OVC050
     FM242000 27004KT 6SM BR OVC015
      TEMPO 2420/2424 4SM -SN OVC004
     FM250100 02008KT 3SM -SN BR OVC012
     FM251200 03005KT P6SM SCT012 BKN035=



000
FTUS43 KDLH 241700
TAFINL
TAF
KINL 241737Z 2418/2518 03010KT P6SM OVC015
      TEMPO 2420/2424 OVC030
     FM250000 07008KT P6SM VCSH OVC020
      TEMPO 2502/2506 4SM -SN OVC010
     FM251200 09010KT P6SM OVC020=



000
FTUS43 KDLH 241700 AAG
TAFBRD
TAF AMD
KBRD 241706Z 2417/2512 24003KT 3SM BR OVC004
      TEMPO 2417/2418 6SM BR
     FM241800 27004KT P6SM OVC015
     FM242100 02006KT 6SM -SN OVC012
     FM250100 02008KT 3SM -SN BR OVC012
     FM250800 03005KT P6SM SCT012 BKN035=



000
FTUS43 KDLH 241600 AAF
TAFBRD
TAF AMD
KBRD 241601Z 2416/2512 24003KT 3/4SM BR OVC002
      TEMPO 2416/2417 2SM BR SCT010
     FM241700 24004KT 3SM BR SCT002
      TEMPO 2417/2418 6SM BR
     FM241800 27004KT P6SM OVC015
     FM242100 02006KT 6SM -SN OVC012
     FM250100 02008KT 3SM -SN BR OVC012
     FM250800 03005KT P6SM SCT012 BKN035=



000
FTUS43 KDLH 241500 AAE
TAFBRD
TAF AMD
KBRD 241531Z 2416/2512 24003KT 1/4SM FZFG OVC002
      TEMPO 2416/2417 1SM BR SCT010
     FM241700 24004KT 3SM BR SCT002
      TEMPO 2417/2418 6SM BR
     FM241800 27004KT P6SM OVC015
     FM242100 02006KT 6SM -SN OVC012
     FM250100 02008KT 3SM -SN BR OVC012
     FM250800 03005KT P6SM SCT012 BKN035=



000
FTUS43 KDLH 241400 AAD
TAFBRD
TAF AMD
KBRD 241449Z 2415/2512 24003KT 1/2SM FZFG OVC002
      TEMPO 2415/2416 1SM BR SCT010
     FM241600 24004KT 3SM BR SCT002
      TEMPO 2416/2417 6SM BR
     FM241700 27004KT P6SM OVC015
     FM242100 02006KT 6SM -SN OVC012
     FM250100 02008KT 3SM -SN BR OVC012
     FM250800 03005KT P6SM SCT012 BKN035=



000
FTUS43 KDLH 241400 AAC
TAFBRD
TAF AMD
KBRD 241417Z 2414/2512 24003KT 3SM BR BKN003
      TEMPO 2414/2416 5SM BR SCT010
     FM241700 27004KT P6SM OVC015
     FM242100 02006KT 6SM -SN OVC012
     FM250100 02008KT 3SM -SN BR OVC012
     FM250800 03005KT P6SM SCT012 BKN035=



000
FTUS43 KDLH 241400 AAB
TAFBRD
TAF AMD
KBRD 241416Z 2414/2512 24003KT 3SM BR SKC
      TEMPO 2414/2416 5SM BR SCT010
     FM241700 27004KT P6SM OVC015
     FM242100 02006KT 6SM -SN OVC012
     FM250100 02008KT 3SM -SN BR OVC012
     FM250800 03005KT P6SM SCT012 BKN035=



000
FTUS43 KDLH 241300 AAB
TAFINL
TAF AMD
KINL 241342Z 2414/2512 32003KT P6SM SCT013 BKN023
      TEMPO 2414/2417 P6SM SCT015 BKN035
     FM241700 03008KT P6SM OVC015
     FM242100 05006KT P6SM SCT015 BKN120
     FM250200 07008KT P6SM SCT120=



000
FTUS43 KDLH 241300 AAA
TAFBRD
TAF AMD
KBRD 241342Z 2414/2512 24003KT 4SM BR SKC
      TEMPO 2414/2416 1 1/2SM BR SCT010
     FM241700 27004KT P6SM OVC015
     FM242100 02006KT 6SM -SN OVC012
     FM250100 02008KT 3SM -SN BR OVC012
     FM250800 03005KT P6SM SCT012 BKN035=



000
FTUS43 KDLH 241300 AAB
TAFDLH
TAF AMD
KDLH 241334Z 2414/2512 29004KT P6SM FEW020 OVC110
     FM241500 28006KT P6SM SCT025 BKN040
     FM241800 30005KT 6SM -SN BR BKN015
      TEMPO 2419/2423 1SM -SN BR OVC008
     FM250100 07012G18KT 5SM -SN BR BKN008
     FM250400 08014G20KT P6SM OVC012=



000
FTUS43 KDLH 241200 AAA
TAFHYR
TAF AMD
KHYR 241242Z 2413/2512 27004KT P6SM OVC025
     FM241400 29004KT P6SM BKN025 OVC100
     FM241900 29004KT 3SM -SN OVC012
     FM250400 06008KT P6SM -SN OVC025
     FM250900 04010KT P6SM SCT025 BKN100=



000
FTUS43 KDLH 241200 AAA
TAFINL
TAF AMD
KINL 241242Z 2413/2512 29006KT P6SM OVC012
      TEMPO 2413/2417 P6SM SCT015 BKN035
     FM241700 03008KT P6SM OVC015
     FM242100 05006KT P6SM SCT015 BKN120
     FM250200 07008KT P6SM SCT120=



000
FTUS43 KDLH 241200 AAA
TAFDLH
TAF AMD
KDLH 241241Z 2413/2512 30009KT 6SM -SN BR SCT015 BKN025
      TEMPO 2413/2415 P6SM NSW SCT025 BKN100
     FM241500 28006KT P6SM SCT025 BKN040
     FM241800 30005KT 6SM -SN BR BKN015
      TEMPO 2419/2423 1SM -SN BR OVC008
     FM250100 07012G18KT 5SM -SN BR BKN008
     FM250400 08014G20KT P6SM OVC012=



000
FTUS43 KDLH 241100
TAFINL
TAF
KINL 241140Z 2412/2512 29006KT P6SM OVC012
      TEMPO 2412/2415 P6SM -SN OVC015
     FM241700 03008KT P6SM OVC015
     FM242100 05006KT P6SM SCT015 BKN120
     FM250200 07008KT P6SM SCT120=



000
FTUS43 KDLH 241100
TAFHYR
TAF
KHYR 241140Z 2412/2512 27004KT P6SM OVC015
     FM241400 29004KT P6SM BKN025 OVC100
     FM241900 29004KT 3SM -SN OVC012
     FM250400 06008KT P6SM -SN OVC025
     FM250900 04010KT P6SM SCT025 BKN100=



000
FTUS43 KDLH 241100
TAFDLH
TAF
KDLH 241140Z 2412/2512 30009KT 6SM -SN BR SCT015 OVC025
     FM241500 28006KT P6SM SCT025 BKN040
     FM241800 30005KT 6SM -SN BR BKN015
      TEMPO 2419/2423 1SM -SN BR OVC008
     FM250100 07012G18KT 5SM -SN BR BKN008
     FM250400 08014G20KT P6SM OVC012=



000
FTUS43 KDLH 241100
TAFBRD
TAF
KBRD 241140Z 2412/2512 28005KT P6SM OVC100
     FM241700 27004KT P6SM OVC015
     FM242100 02006KT 6SM -SN OVC012
     FM250100 02008KT 3SM -SN BR OVC012
     FM250800 03005KT P6SM SCT012 BKN035=



000
FTUS43 KDLH 241000 AAA
TAFINL
TAF AMD
KINL 241034Z 2411/2506 29007KT P6SM SCT018 OVC024
      TEMPO 2411/2415 P6SM -SN OVC015
     FM241500 VRB05KT P6SM -SN OVC015
     FM242000 05008KT P6SM SCT015 BKN090=



000
FTUS43 KDLH 240900 AAA
TAFDLH
TAF AMD
KDLH 240913Z 2409/2506 31011KT P6SM SCT015 OVC025
     FM241100 30006KT P6SM -SN SCT014 OVC019
     FM241500 30005KT P6SM OVC010
     FM242100 03006KT P6SM -SN OVC007=



000
FTUS43 KDLH 240900 AAA
TAFDLH
TAF AMD
KDLH 240913Z 2409/2506 31011KT P6SM SCT015 OVC025
     FM241100 30006KT P6SM -SN SCT014 OVC019
     FM241500 30005KT P6SM OVC010
     FM242100 03006KT P6SM -SN OVC007=



000
FTUS43 KDLH 240900 AAA
TAFHYR
TAF AMD
KHYR 240904Z 2409/2506 VRB03KT P6SM OVC014
     FM242000 VRB03KT P6SM -SN OVC010
     FM250300 07007KT P6SM -SN OVC025=



000
FTUS43 KDLH 240500
TAFDLH
TAF
KDLH 240538Z 2406/2506 29009KT P6SM SCT015 OVC045
     FM240700 30007KT P6SM OVC014
     FM241100 30006KT P6SM -SN SCT014 OVC019
     FM241500 30005KT P6SM OVC010
     FM242100 03006KT P6SM -SN OVC007=



000
FTUS43 KDLH 240500
TAFINL
TAF
KINL 240538Z 2406/2506 29007KT P6SM SCT018 OVC024
     FM241500 VRB05KT P6SM -SN OVC015
     FM242000 05008KT P6SM SCT015 BKN090=



000
FTUS43 KDLH 240500
TAFHYR
TAF
KHYR 240538Z 2406/2506 VRB03KT P6SM OVC030
     FM241100 29006KT P6SM OVC029
     FM242000 VRB03KT P6SM -SN OVC010
     FM250300 07007KT P6SM -SN OVC025=



000
FTUS43 KDLH 240500
TAFBRD
TAF
KBRD 240538Z 2406/2506 28006KT P6SM BKN250
     FM241200 26004KT P6SM OVC100
     FM242200 VRB03KT P6SM -SN OVC007
     FM250000 07007KT 1 1/2SM -SN OVC015=



000
FTUS43 KDLH 240500 AAB
TAFBRD
TAF AMD
KBRD 240510Z 2405/2424 28008KT P6SM BKN250
     FM241200 28005KT P6SM OVC015
     FM242200 VRB03KT P6SM -SN OVC007=



000
FTUS43 KDLH 240500 AAA
TAFINL
TAF AMD
KINL 240510Z 2405/2424 30009KT P6SM OVC023
     FM240600 29007KT P6SM OVC015
     FM241600 03005KT P6SM OVC015=



000
FTUS43 KDLH 240500 AAC
TAFDLH
TAF AMD
KDLH 240509Z 2405/2424 28012KT P6SM SCT030 OVC050
     FM240900 31007KT P6SM OVC025
     FM241400 31007KT 6SM BR OVC013
     FM242100 03006KT P6SM OVC015=



000
FTUS43 KDLH 240200 AAB
TAFDLH
TAF AMD
KDLH 240233Z 2403/2424 29009KT P6SM FEW019 OVC024
     FM240900 31007KT P6SM OVC025
     FM241400 31007KT 6SM BR OVC013
     FM242100 03006KT P6SM OVC015=



000
FTUS43 KDLH 240100 AAA
TAFDLH
TAF AMD
KDLH 240159Z 2402/2424 28009KT P6SM SCT021 OVC060
     FM240900 31007KT P6SM OVC025
     FM241400 31007KT 6SM BR OVC013
     FM242100 03006KT P6SM OVC015=



000
FTUS43 KDLH 240000 AAA
TAFBRD
TAF AMD
KBRD 240031Z 2401/2424 26004KT P6SM OVC050
     FM240500 28007KT P6SM OVC025
     FM241200 28005KT P6SM OVC015
     FM242200 VRB03KT P6SM -SN OVC007=



000
FTUS43 KDLH 232300
TAFBRD
TAF
KBRD 232333Z 2400/2424 30006KT P6SM SCT026
      TEMPO 2400/2401 OVC026
     FM240500 28007KT P6SM OVC025
     FM241200 28005KT P6SM OVC015
     FM242200 VRB03KT P6SM -SN OVC007=



000
FTUS43 KDLH 232300
TAFDLH
TAF
KDLH 232333Z 2400/2424 29012KT P6SM OVC015
     FM240900 31007KT P6SM -SN OVC025
     FM241400 31007KT 6SM BR OVC013
     FM242100 03006KT P6SM OVC015=



000
FTUS43 KDLH 232300
TAFINL
TAF
KINL 232333Z 2400/2424 26004KT P6SM OVC023
     FM240200 29007KT P6SM OVC010
     FM240600 29007KT P6SM OVC015
     FM241600 03005KT P6SM OVC015=



000
FTUS43 KDLH 232300
TAFHYR
TAF
KHYR 232333Z 2400/2424 23004KT P6SM OVC029
     FM240600 VRB02KT P6SM OVC022
     FM241100 30006KT P6SM OVC015
     FM242200 VRB03KT P6SM OVC010=



000
FTUS43 KDLH 232200 AAB
TAFBRD
TAF AMD
KBRD 232229Z 2322/2418 31009KT P6SM SCT027 BKN035
     FM241100 28006KT P6SM OVC025=



000
FTUS43 KDLH 232200 AAA
TAFHYR
TAF AMD
KHYR 232227Z 2322/2418 21005KT P6SM OVC028
     FM240600 00000KT P6SM SCT028 BKN250
     FM241100 31004KT P6SM OVC015=



000
FTUS43 KDLH 232200 AAB
TAFDLH
TAF AMD
KDLH 232210Z 2322/2418 30011G18KT P6SM OVC019
      TEMPO 2403/2405 BKN010
     FM240900 31007KT P6SM -SN OVC012
     FM241400 31007KT 5SM BR OVC012=



000
FTUS43 KDLH 232100 AAA
TAFDLH
TAF AMD
KDLH 232102Z 2321/2418 31013G24KT P6SM BKN021
      TEMPO 2403/2405 BKN010
     FM240900 31007KT P6SM -SN OVC012
     FM241400 31007KT 5SM BR OVC012=



000
FTUS43 KDLH 232000 AAA
TAFBRD
TAF AMD
KBRD 232057Z 2321/2418 33008KT P6SM OVC025=



    US Dept of Commerce
    National Oceanic and Atmospheric Administration
    National Weather Service
    1325 East West Highway
    Silver Spring, MD 20910
    Page Author: NWS Internet Services Team
Disclaimer
Information Quality
Credits
Glossary
Privacy Policy
Freedom of Information Act (FOIA)
About Us
Career Opportunities